sensor_id;sensor_type;location;lat;lon;timestamp;P1;durP1;ratioP1;P2;durP2;ratioP2
51036;SDS011;37064;59.346;18.058;2023-02-21T00:01:01;1.08;;;0.90;;
51036;SDS011;37064;59.346;18.058;2023-02-21T00:03:46;2.95;;;0.60;;
51036;SDS011;37064;59.346;18.058;2023-02-21T00:06:30;2.28;;;0.90;;
51036;SDS011;37064;59.346;18.058;2023-02-21T00:09:15;0.75;;;0.60;;
51036;SDS011;37064;59.346;18.058;2023-02-21T00:12:00;1.27;;;0.60;;
51036;SDS011;37064;59.346;18.058;2023-02-21T00:14:44;1.90;;;0.98;;
51036;SDS011;37064;59.346;18.058;2023-02-21T00:17:29;1.40;;;0.80;;
51036;SDS011;37064;59.346;18.058;2023-02-21T00:20:14;0.90;;;0.65;;
51036;SDS011;37064;59.346;18.058;2023-02-21T00:22:58;0.98;;;0.88;;
51036;SDS011;37064;59.346;18.058;2023-02-21T00:25:43;2.15;;;0.68;;
51036;SDS011;37064;59.346;18.058;2023-02-21T00:28:27;0.93;;;0.60;;
51036;SDS011;37064;59.346;18.058;2023-02-21T00:31:12;0.95;;;0.80;;
51036;SDS011;37064;59.346;18.058;2023-02-21T00:33:56;1.95;;;0.68;;
51036;SDS011;37064;59.346;18.058;2023-02-21T00:36:41;0.70;;;0.50;;
51036;SDS011;37064;59.346;18.058;2023-02-21T00:39:26;3.38;;;0.60;;
51036;SDS011;37064;59.346;18.058;2023-02-21T00:42:10;2.05;;;1.27;;
51036;SDS011;37064;59.346;18.058;2023-02-21T00:44:55;1.05;;;0.70;;
51036;SDS011;37064;59.346;18.058;2023-02-21T00:47:39;1.50;;;1.08;;
51036;SDS011;37064;59.346;18.058;2023-02-21T00:50:24;0.75;;;0.60;;
51036;SDS011;37064;59.346;18.058;2023-02-21T00:53:09;0.80;;;0.60;;
51036;SDS011;37064;59.346;18.058;2023-02-21T00:55:53;0.90;;;0.70;;
51036;SDS011;37064;59.346;18.058;2023-02-21T00:58:38;0.95;;;0.85;;
51036;SDS011;37064;59.346;18.058;2023-02-21T01:01:22;1.35;;;0.70;;
51036;SDS011;37064;59.346;18.058;2023-02-21T01:04:07;0.85;;;0.70;;
51036;SDS011;37064;59.346;18.058;2023-02-21T01:06:51;1.80;;;0.80;;
51036;SDS011;37064;59.346;18.058;2023-02-21T01:09:36;2.15;;;1.17;;
51036;SDS011;37064;59.346;18.058;2023-02-21T01:12:21;1.58;;;0.88;;
51036;SDS011;37064;59.346;18.058;2023-02-21T01:15:05;2.00;;;1.42;;
51036;SDS011;37064;59.346;18.058;2023-02-21T01:17:50;1.77;;;1.10;;
51036;SDS011;37064;59.346;18.058;2023-02-21T01:20:35;1.50;;;0.70;;
51036;SDS011;37064;59.346;18.058;2023-02-21T01:23:20;0.82;;;0.57;;
51036;SDS011;37064;59.346;18.058;2023-02-21T01:26:04;0.90;;;0.70;;
51036;SDS011;37064;59.346;18.058;2023-02-21T01:28:49;1.05;;;0.80;;
51036;SDS011;37064;59.346;18.058;2023-02-21T01:31:33;1.17;;;0.80;;
51036;SDS011;37064;59.346;18.058;2023-02-21T01:34:18;1.35;;;0.90;;
51036;SDS011;37064;59.346;18.058;2023-02-21T01:37:02;1.33;;;0.90;;
51036;SDS011;37064;59.346;18.058;2023-02-21T01:39:47;1.30;;;0.80;;
51036;SDS011;37064;59.346;18.058;2023-02-21T01:42:32;1.48;;;1.00;;
51036;SDS011;37064;59.346;18.058;2023-02-21T01:48:04;4.43;;;1.40;;
51036;SDS011;37064;59.346;18.058;2023-02-21T01:50:49;2.33;;;1.20;;
51036;SDS011;37064;59.346;18.058;2023-02-21T01:53:35;4.18;;;1.13;;
51036;SDS011;37064;59.346;18.058;2023-02-21T01:56:19;4.55;;;0.90;;
51036;SDS011;37064;59.346;18.058;2023-02-21T01:59:04;1.30;;;0.77;;
51036;SDS011;37064;59.346;18.058;2023-02-21T02:02:29;1.25;;;1.10;;
51036;SDS011;37064;59.346;18.058;2023-02-21T02:05:01;0.98;;;0.80;;
51036;SDS011;37064;59.346;18.058;2023-02-21T02:07:46;1.42;;;1.02;;
51036;SDS011;37064;59.346;18.058;2023-02-21T02:10:31;1.80;;;1.15;;
51036;SDS011;37064;59.346;18.058;2023-02-21T02:13:21;1.83;;;1.10;;
51036;SDS011;37064;59.346;18.058;2023-02-21T02:15:54;2.00;;;1.10;;
51036;SDS011;37064;59.346;18.058;2023-02-21T02:26:44;1.38;;;1.10;;
51036;SDS011;37064;59.346;18.058;2023-02-21T02:37:23;1.85;;;1.17;;
51036;SDS011;37064;59.346;18.058;2023-02-21T02:45:01;7.13;;;1.45;;
51036;SDS011;37064;59.346;18.058;2023-02-21T02:47:30;2.78;;;1.95;;
51036;SDS011;37064;59.346;18.058;2023-02-21T02:49:58;2.78;;;1.40;;
51036;SDS011;37064;59.346;18.058;2023-02-21T02:52:24;3.30;;;1.48;;
51036;SDS011;37064;59.346;18.058;2023-02-21T02:55:01;2.08;;;1.40;;
51036;SDS011;37064;59.346;18.058;2023-02-21T02:57:28;2.05;;;1.50;;
51036;SDS011;37064;59.346;18.058;2023-02-21T03:00:02;2.33;;;1.60;;
51036;SDS011;37064;59.346;18.058;2023-02-21T03:10:40;3.03;;;1.60;;
51036;SDS011;37064;59.346;18.058;2023-02-21T03:18:13;17.00;;;2.17;;
51036;SDS011;37064;59.346;18.058;2023-02-21T03:20:42;9.88;;;1.90;;
51036;SDS011;37064;59.346;18.058;2023-02-21T03:23:09;2.88;;;1.63;;
51036;SDS011;37064;59.346;18.058;2023-02-21T03:25:37;10.18;;;2.35;;
51036;SDS011;37064;59.346;18.058;2023-02-21T03:28:04;3.00;;;1.80;;
51036;SDS011;37064;59.346;18.058;2023-02-21T03:30:30;3.65;;;1.80;;
51036;SDS011;37064;59.346;18.058;2023-02-21T03:32:57;2.63;;;1.52;;
51036;SDS011;37064;59.346;18.058;2023-02-21T03:35:23;4.18;;;1.75;;
51036;SDS011;37064;59.346;18.058;2023-02-21T03:37:53;4.20;;;1.60;;
51036;SDS011;37064;59.346;18.058;2023-02-21T03:40:21;6.38;;;1.40;;
51036;SDS011;37064;59.346;18.058;2023-02-21T03:42:48;5.53;;;1.88;;
51036;SDS011;37064;59.346;18.058;2023-02-21T03:45:14;5.47;;;1.73;;
51036;SDS011;37064;59.346;18.058;2023-02-21T03:47:40;2.42;;;1.52;;
51036;SDS011;37064;59.346;18.058;2023-02-21T03:50:06;4.18;;;1.38;;
51036;SDS011;37064;59.346;18.058;2023-02-21T03:52:32;2.92;;;1.50;;
51036;SDS011;37064;59.346;18.058;2023-02-21T03:54:58;2.10;;;1.25;;
51036;SDS011;37064;59.346;18.058;2023-02-21T03:57:24;2.28;;;1.17;;
51036;SDS011;37064;59.346;18.058;2023-02-21T03:59:50;2.25;;;1.30;;
51036;SDS011;37064;59.346;18.058;2023-02-21T04:02:16;3.25;;;1.50;;
51036;SDS011;37064;59.346;18.058;2023-02-21T04:04:43;3.03;;;1.45;;
51036;SDS011;37064;59.346;18.058;2023-02-21T04:07:10;3.35;;;1.55;;
51036;SDS011;37064;59.346;18.058;2023-02-21T04:09:36;3.22;;;1.85;;
51036;SDS011;37064;59.346;18.058;2023-02-21T04:12:03;3.00;;;1.95;;
51036;SDS011;37064;59.346;18.058;2023-02-21T04:14:29;4.75;;;2.22;;
51036;SDS011;37064;59.346;18.058;2023-02-21T04:16:55;3.03;;;1.90;;
51036;SDS011;37064;59.346;18.058;2023-02-21T04:19:21;3.83;;;2.17;;
51036;SDS011;37064;59.346;18.058;2023-02-21T04:21:47;4.28;;;2.45;;
51036;SDS011;37064;59.346;18.058;2023-02-21T04:24:13;3.22;;;1.77;;
51036;SDS011;37064;59.346;18.058;2023-02-21T04:26:39;3.08;;;1.80;;
51036;SDS011;37064;59.346;18.058;2023-02-21T04:29:05;2.95;;;1.75;;
51036;SDS011;37064;59.346;18.058;2023-02-21T04:31:31;2.22;;;1.63;;
51036;SDS011;37064;59.346;18.058;2023-02-21T04:33:58;3.28;;;1.77;;
51036;SDS011;37064;59.346;18.058;2023-02-21T04:36:24;3.15;;;1.70;;
51036;SDS011;37064;59.346;18.058;2023-02-21T04:38:50;3.88;;;2.08;;
51036;SDS011;37064;59.346;18.058;2023-02-21T04:41:17;3.15;;;1.60;;
51036;SDS011;37064;59.346;18.058;2023-02-21T04:43:43;3.67;;;1.95;;
51036;SDS011;37064;59.346;18.058;2023-02-21T04:46:10;3.83;;;1.80;;
51036;SDS011;37064;59.346;18.058;2023-02-21T04:48:39;3.80;;;1.75;;
51036;SDS011;37064;59.346;18.058;2023-02-21T04:51:05;3.78;;;1.98;;
51036;SDS011;37064;59.346;18.058;2023-02-21T04:53:31;3.58;;;1.27;;
51036;SDS011;37064;59.346;18.058;2023-02-21T04:55:57;2.83;;;1.30;;
51036;SDS011;37064;59.346;18.058;2023-02-21T04:58:23;2.17;;;1.73;;
51036;SDS011;37064;59.346;18.058;2023-02-21T05:00:49;2.75;;;1.80;;
51036;SDS011;37064;59.346;18.058;2023-02-21T05:03:15;2.38;;;1.45;;
51036;SDS011;37064;59.346;18.058;2023-02-21T05:05:42;2.70;;;1.63;;
51036;SDS011;37064;59.346;18.058;2023-02-21T05:08:08;3.13;;;1.65;;
51036;SDS011;37064;59.346;18.058;2023-02-21T05:10:34;2.78;;;1.42;;
51036;SDS011;37064;59.346;18.058;2023-02-21T05:13:00;2.75;;;1.70;;
51036;SDS011;37064;59.346;18.058;2023-02-21T05:15:26;2.35;;;1.45;;
51036;SDS011;37064;59.346;18.058;2023-02-21T05:17:52;3.75;;;2.25;;
51036;SDS011;37064;59.346;18.058;2023-02-21T05:20:18;3.10;;;1.65;;
51036;SDS011;37064;59.346;18.058;2023-02-21T05:22:44;2.33;;;1.60;;
51036;SDS011;37064;59.346;18.058;2023-02-21T05:25:14;2.40;;;1.67;;
51036;SDS011;37064;59.346;18.058;2023-02-21T05:27:40;2.05;;;1.25;;
51036;SDS011;37064;59.346;18.058;2023-02-21T05:30:06;1.80;;;1.48;;
51036;SDS011;37064;59.346;18.058;2023-02-21T05:32:32;2.65;;;1.60;;
51036;SDS011;37064;59.346;18.058;2023-02-21T05:34:58;2.63;;;1.60;;
51036;SDS011;37064;59.346;18.058;2023-02-21T05:37:24;2.35;;;1.60;;
51036;SDS011;37064;59.346;18.058;2023-02-21T05:39:50;2.17;;;1.30;;
51036;SDS011;37064;59.346;18.058;2023-02-21T05:42:16;2.65;;;1.30;;
51036;SDS011;37064;59.346;18.058;2023-02-21T05:44:44;4.15;;;1.20;;
51036;SDS011;37064;59.346;18.058;2023-02-21T05:47:10;2.42;;;1.38;;
51036;SDS011;37064;59.346;18.058;2023-02-21T05:49:36;1.83;;;1.10;;
51036;SDS011;37064;59.346;18.058;2023-02-21T05:52:02;3.00;;;1.20;;
51036;SDS011;37064;59.346;18.058;2023-02-21T05:54:29;4.03;;;1.50;;
51036;SDS011;37064;59.346;18.058;2023-02-21T05:56:55;2.03;;;1.45;;
51036;SDS011;37064;59.346;18.058;2023-02-21T05:59:22;2.08;;;1.20;;
51036;SDS011;37064;59.346;18.058;2023-02-21T06:01:49;1.92;;;1.00;;
51036;SDS011;37064;59.346;18.058;2023-02-21T06:04:15;2.40;;;1.42;;
51036;SDS011;37064;59.346;18.058;2023-02-21T06:06:41;1.63;;;1.02;;
51036;SDS011;37064;59.346;18.058;2023-02-21T06:09:07;2.30;;;1.10;;
51036;SDS011;37064;59.346;18.058;2023-02-21T06:11:34;3.22;;;1.33;;
51036;SDS011;37064;59.346;18.058;2023-02-21T06:14:02;1.45;;;1.10;;
51036;SDS011;37064;59.346;18.058;2023-02-21T06:16:35;3.67;;;1.35;;
51036;SDS011;37064;59.346;18.058;2023-02-21T06:19:02;2.15;;;1.20;;
51036;SDS011;37064;59.346;18.058;2023-02-21T06:21:29;2.40;;;1.33;;
51036;SDS011;37064;59.346;18.058;2023-02-21T06:23:55;2.58;;;1.45;;
51036;SDS011;37064;59.346;18.058;2023-02-21T06:26:21;2.85;;;1.70;;
51036;SDS011;37064;59.346;18.058;2023-02-21T06:28:47;2.08;;;1.10;;
51036;SDS011;37064;59.346;18.058;2023-02-21T06:31:14;3.85;;;1.60;;
51036;SDS011;37064;59.346;18.058;2023-02-21T06:33:40;3.20;;;1.25;;
51036;SDS011;37064;59.346;18.058;2023-02-21T06:36:07;1.83;;;1.27;;
51036;SDS011;37064;59.346;18.058;2023-02-21T06:38:35;2.67;;;1.42;;
51036;SDS011;37064;59.346;18.058;2023-02-21T06:41:04;2.17;;;1.30;;
51036;SDS011;37064;59.346;18.058;2023-02-21T06:43:30;3.97;;;1.50;;
51036;SDS011;37064;59.346;18.058;2023-02-21T06:45:56;2.25;;;1.20;;
51036;SDS011;37064;59.346;18.058;2023-02-21T06:48:22;2.40;;;1.23;;
51036;SDS011;37064;59.346;18.058;2023-02-21T06:50:48;1.70;;;1.27;;
51036;SDS011;37064;59.346;18.058;2023-02-21T06:53:14;2.10;;;1.20;;
51036;SDS011;37064;59.346;18.058;2023-02-21T06:55:40;2.00;;;1.17;;
51036;SDS011;37064;59.346;18.058;2023-02-21T06:58:06;2.63;;;1.48;;
51036;SDS011;37064;59.346;18.058;2023-02-21T07:00:32;2.45;;;1.42;;
51036;SDS011;37064;59.346;18.058;2023-02-21T07:02:58;2.63;;;1.27;;
51036;SDS011;37064;59.346;18.058;2023-02-21T07:05:24;2.78;;;1.48;;
51036;SDS011;37064;59.346;18.058;2023-02-21T07:07:51;2.70;;;1.38;;
51036;SDS011;37064;59.346;18.058;2023-02-21T07:10:17;2.20;;;1.35;;
51036;SDS011;37064;59.346;18.058;2023-02-21T07:12:43;1.88;;;1.17;;
51036;SDS011;37064;59.346;18.058;2023-02-21T07:15:09;1.92;;;1.40;;
51036;SDS011;37064;59.346;18.058;2023-02-21T07:17:35;2.40;;;1.65;;
51036;SDS011;37064;59.346;18.058;2023-02-21T07:20:01;2.53;;;1.73;;
51036;SDS011;37064;59.346;18.058;2023-02-21T07:22:28;2.40;;;1.73;;
51036;SDS011;37064;59.346;18.058;2023-02-21T07:24:54;4.00;;;1.50;;
51036;SDS011;37064;59.346;18.058;2023-02-21T07:27:21;1.63;;;1.25;;
51036;SDS011;37064;59.346;18.058;2023-02-21T07:29:48;2.38;;;1.30;;
51036;SDS011;37064;59.346;18.058;2023-02-21T07:32:14;2.55;;;1.40;;
51036;SDS011;37064;59.346;18.058;2023-02-21T07:34:40;2.35;;;1.50;;
51036;SDS011;37064;59.346;18.058;2023-02-21T07:37:07;2.65;;;1.70;;
51036;SDS011;37064;59.346;18.058;2023-02-21T07:39:33;4.13;;;1.60;;
51036;SDS011;37064;59.346;18.058;2023-02-21T07:41:59;5.30;;;1.70;;
51036;SDS011;37064;59.346;18.058;2023-02-21T07:44:25;4.97;;;1.95;;
51036;SDS011;37064;59.346;18.058;2023-02-21T07:46:51;1.77;;;1.00;;
51036;SDS011;37064;59.346;18.058;2023-02-21T07:49:17;5.35;;;1.80;;
51036;SDS011;37064;59.346;18.058;2023-02-21T07:51:43;3.05;;;1.75;;
51036;SDS011;37064;59.346;18.058;2023-02-21T07:54:09;2.05;;;1.75;;
51036;SDS011;37064;59.346;18.058;2023-02-21T07:56:35;4.18;;;2.08;;
51036;SDS011;37064;59.346;18.058;2023-02-21T07:59:06;2.63;;;1.70;;
51036;SDS011;37064;59.346;18.058;2023-02-21T08:01:32;2.65;;;1.63;;
51036;SDS011;37064;59.346;18.058;2023-02-21T08:03:58;2.78;;;1.70;;
51036;SDS011;37064;59.346;18.058;2023-02-21T08:06:24;2.55;;;1.63;;
51036;SDS011;37064;59.346;18.058;2023-02-21T08:08:50;4.35;;;2.22;;
51036;SDS011;37064;59.346;18.058;2023-02-21T08:11:16;3.45;;;1.98;;
51036;SDS011;37064;59.346;18.058;2023-02-21T08:13:42;3.85;;;1.88;;
51036;SDS011;37064;59.346;18.058;2023-02-21T08:16:08;4.05;;;2.40;;
51036;SDS011;37064;59.346;18.058;2023-02-21T08:18:34;4.30;;;2.13;;
51036;SDS011;37064;59.346;18.058;2023-02-21T08:21:01;3.88;;;2.10;;
51036;SDS011;37064;59.346;18.058;2023-02-21T08:23:28;5.00;;;1.80;;
51036;SDS011;37064;59.346;18.058;2023-02-21T08:25:54;4.78;;;2.65;;
51036;SDS011;37064;59.346;18.058;2023-02-21T08:28:20;5.30;;;1.90;;
51036;SDS011;37064;59.346;18.058;2023-02-21T08:30:46;3.15;;;1.80;;
51036;SDS011;37064;59.346;18.058;2023-02-21T08:33:12;3.92;;;2.25;;
51036;SDS011;37064;59.346;18.058;2023-02-21T08:35:38;3.72;;;2.28;;
51036;SDS011;37064;59.346;18.058;2023-02-21T08:38:04;4.38;;;2.30;;
51036;SDS011;37064;59.346;18.058;2023-02-21T08:40:30;6.40;;;2.05;;
51036;SDS011;37064;59.346;18.058;2023-02-21T08:42:57;4.70;;;2.60;;
51036;SDS011;37064;59.346;18.058;2023-02-21T08:45:24;4.07;;;2.75;;
51036;SDS011;37064;59.346;18.058;2023-02-21T08:47:51;3.65;;;2.47;;
51036;SDS011;37064;59.346;18.058;2023-02-21T08:50:17;3.53;;;2.08;;
51036;SDS011;37064;59.346;18.058;2023-02-21T08:52:47;4.25;;;2.47;;
51036;SDS011;37064;59.346;18.058;2023-02-21T08:55:13;4.32;;;2.05;;
51036;SDS011;37064;59.346;18.058;2023-02-21T08:57:39;3.97;;;2.30;;
51036;SDS011;37064;59.346;18.058;2023-02-21T09:00:06;5.85;;;2.50;;
51036;SDS011;37064;59.346;18.058;2023-02-21T09:02:35;4.53;;;2.70;;
51036;SDS011;37064;59.346;18.058;2023-02-21T09:05:08;4.70;;;2.55;;
51036;SDS011;37064;59.346;18.058;2023-02-21T09:07:34;3.10;;;2.30;;
51036;SDS011;37064;59.346;18.058;2023-02-21T09:10:00;4.30;;;2.20;;
51036;SDS011;37064;59.346;18.058;2023-02-21T09:12:26;6.07;;;2.80;;
51036;SDS011;37064;59.346;18.058;2023-02-21T09:14:52;3.88;;;2.05;;
51036;SDS011;37064;59.346;18.058;2023-02-21T09:17:18;3.03;;;1.80;;
51036;SDS011;37064;59.346;18.058;2023-02-21T09:19:44;4.07;;;1.75;;
51036;SDS011;37064;59.346;18.058;2023-02-21T09:22:10;3.33;;;1.88;;
51036;SDS011;37064;59.346;18.058;2023-02-21T09:24:37;3.35;;;1.92;;
51036;SDS011;37064;59.346;18.058;2023-02-21T09:27:03;3.85;;;2.20;;
51036;SDS011;37064;59.346;18.058;2023-02-21T09:29:30;2.78;;;1.60;;
51036;SDS011;37064;59.346;18.058;2023-02-21T09:31:56;3.55;;;2.10;;
51036;SDS011;37064;59.346;18.058;2023-02-21T09:34:22;3.55;;;1.65;;
51036;SDS011;37064;59.346;18.058;2023-02-21T09:36:48;3.28;;;1.98;;
51036;SDS011;37064;59.346;18.058;2023-02-21T09:39:15;4.18;;;2.05;;
51036;SDS011;37064;59.346;18.058;2023-02-21T09:41:41;4.88;;;2.03;;
51036;SDS011;37064;59.346;18.058;2023-02-21T09:44:12;3.97;;;2.10;;
51036;SDS011;37064;59.346;18.058;2023-02-21T09:46:43;3.90;;;1.95;;
51036;SDS011;37064;59.346;18.058;2023-02-21T09:49:32;3.60;;;2.25;;
51036;SDS011;37064;59.346;18.058;2023-02-21T09:51:57;3.33;;;2.10;;
51036;SDS011;37064;59.346;18.058;2023-02-21T09:54:26;4.25;;;2.63;;
51036;SDS011;37064;59.346;18.058;2023-02-21T09:56:53;3.97;;;1.92;;
51036;SDS011;37064;59.346;18.058;2023-02-21T09:59:21;6.43;;;2.65;;
51036;SDS011;37064;59.346;18.058;2023-02-21T10:02:08;3.85;;;2.42;;
51036;SDS011;37064;59.346;18.058;2023-02-21T10:04:52;4.95;;;2.00;;
51036;SDS011;37064;59.346;18.058;2023-02-21T10:09:58;4.90;;;2.67;;
51036;SDS011;37064;59.346;18.058;2023-02-21T10:12:32;3.67;;;2.13;;
51036;SDS011;37064;59.346;18.058;2023-02-21T10:15:22;5.40;;;2.42;;
51036;SDS011;37064;59.346;18.058;2023-02-21T10:18:05;2.90;;;1.55;;
51036;SDS011;37064;59.346;18.058;2023-02-21T10:26:13;2.95;;;1.83;;
51036;SDS011;37064;59.346;18.058;2023-02-21T10:28:40;3.47;;;1.75;;
51036;SDS011;37064;59.346;18.058;2023-02-21T10:31:08;4.10;;;2.20;;
51036;SDS011;37064;59.346;18.058;2023-02-21T10:33:37;2.63;;;1.63;;
51036;SDS011;37064;59.346;18.058;2023-02-21T10:36:37;4.55;;;2.47;;
51036;SDS011;37064;59.346;18.058;2023-02-21T10:39:03;3.45;;;2.47;;
51036;SDS011;37064;59.346;18.058;2023-02-21T10:41:31;4.50;;;2.15;;
51036;SDS011;37064;59.346;18.058;2023-02-21T10:44:01;4.85;;;2.10;;
51036;SDS011;37064;59.346;18.058;2023-02-21T10:46:30;4.13;;;1.40;;
51036;SDS011;37064;59.346;18.058;2023-02-21T10:49:21;3.13;;;1.80;;
51036;SDS011;37064;59.346;18.058;2023-02-21T10:52:02;3.08;;;1.90;;
51036;SDS011;37064;59.346;18.058;2023-02-21T10:54:28;3.28;;;2.05;;
51036;SDS011;37064;59.346;18.058;2023-02-21T10:56:54;3.33;;;1.80;;
51036;SDS011;37064;59.346;18.058;2023-02-21T11:01:50;4.13;;;1.58;;
51036;SDS011;37064;59.346;18.058;2023-02-21T11:06:58;4.68;;;2.47;;
51036;SDS011;37064;59.346;18.058;2023-02-21T11:14:30;4.57;;;2.70;;
51036;SDS011;37064;59.346;18.058;2023-02-21T11:17:08;3.25;;;2.13;;
51036;SDS011;37064;59.346;18.058;2023-02-21T11:20:19;2.78;;;1.80;;
51036;SDS011;37064;59.346;18.058;2023-02-21T11:27:36;3.50;;;1.90;;
51036;SDS011;37064;59.346;18.058;2023-02-21T11:30:08;3.42;;;2.20;;
51036;SDS011;37064;59.346;18.058;2023-02-21T11:32:39;3.30;;;2.22;;
51036;SDS011;37064;59.346;18.058;2023-02-21T11:41:02;3.75;;;2.03;;
51036;SDS011;37064;59.346;18.058;2023-02-21T11:45:36;4.15;;;2.70;;
51036;SDS011;37064;59.346;18.058;2023-02-21T11:48:06;3.28;;;1.85;;
51036;SDS011;37064;59.346;18.058;2023-02-21T11:50:37;3.58;;;1.92;;
51036;SDS011;37064;59.346;18.058;2023-02-21T12:01:44;3.65;;;2.00;;
51036;SDS011;37064;59.346;18.058;2023-02-21T12:09:25;4.10;;;3.05;;
51036;SDS011;37064;59.346;18.058;2023-02-21T12:11:57;2.63;;;1.70;;
51036;SDS011;37064;59.346;18.058;2023-02-21T12:19:37;5.72;;;1.90;;
51036;SDS011;37064;59.346;18.058;2023-02-21T12:25:02;2.08;;;1.25;;
51036;SDS011;37064;59.346;18.058;2023-02-21T12:30:16;2.83;;;1.83;;
51036;SDS011;37064;59.346;18.058;2023-02-21T12:38:13;7.32;;;2.35;;
51036;SDS011;37064;59.346;18.058;2023-02-21T12:43:31;3.70;;;2.30;;
51036;SDS011;37064;59.346;18.058;2023-02-21T12:46:03;4.03;;;1.85;;
51036;SDS011;37064;59.346;18.058;2023-02-21T12:50:57;4.38;;;2.53;;
51036;SDS011;37064;59.346;18.058;2023-02-21T12:53:32;4.60;;;2.60;;
51036;SDS011;37064;59.346;18.058;2023-02-21T12:56:07;4.20;;;2.17;;
51036;SDS011;37064;59.346;18.058;2023-02-21T12:58:48;4.30;;;2.33;;
51036;SDS011;37064;59.346;18.058;2023-02-21T13:01:20;4.88;;;1.92;;
51036;SDS011;37064;59.346;18.058;2023-02-21T13:08:48;3.65;;;2.42;;
51036;SDS011;37064;59.346;18.058;2023-02-21T13:11:21;4.03;;;1.75;;
51036;SDS011;37064;59.346;18.058;2023-02-21T13:13:47;3.22;;;1.92;;
51036;SDS011;37064;59.346;18.058;2023-02-21T13:16:13;2.97;;;2.25;;
51036;SDS011;37064;59.346;18.058;2023-02-21T13:18:46;4.50;;;2.33;;
51036;SDS011;37064;59.346;18.058;2023-02-21T13:23:58;2.42;;;1.60;;
51036;SDS011;37064;59.346;18.058;2023-02-21T13:28:55;4.72;;;2.20;;
51036;SDS011;37064;59.346;18.058;2023-02-21T13:31:26;6.53;;;2.20;;
51036;SDS011;37064;59.346;18.058;2023-02-21T13:33:56;4.05;;;1.95;;
51036;SDS011;37064;59.346;18.058;2023-02-21T13:36:31;4.57;;;2.70;;
51036;SDS011;37064;59.346;18.058;2023-02-21T13:39:01;3.17;;;1.80;;
51036;SDS011;37064;59.346;18.058;2023-02-21T13:41:29;3.60;;;2.38;;
51036;SDS011;37064;59.346;18.058;2023-02-21T13:43:55;3.00;;;1.70;;
51036;SDS011;37064;59.346;18.058;2023-02-21T13:51:49;2.85;;;1.90;;
51036;SDS011;37064;59.346;18.058;2023-02-21T13:54:21;4.60;;;2.05;;
51036;SDS011;37064;59.346;18.058;2023-02-21T13:56:47;2.25;;;1.50;;
51036;SDS011;37064;59.346;18.058;2023-02-21T13:59:30;3.72;;;2.90;;
51036;SDS011;37064;59.346;18.058;2023-02-21T14:04:49;3.92;;;2.15;;
51036;SDS011;37064;59.346;18.058;2023-02-21T14:07:45;3.25;;;2.20;;
51036;SDS011;37064;59.346;18.058;2023-02-21T14:10:22;4.68;;;2.80;;
51036;SDS011;37064;59.346;18.058;2023-02-21T14:12:53;3.83;;;1.92;;
51036;SDS011;37064;59.346;18.058;2023-02-21T14:15:20;3.72;;;2.30;;
51036;SDS011;37064;59.346;18.058;2023-02-21T14:17:46;3.05;;;1.85;;
51036;SDS011;37064;59.346;18.058;2023-02-21T14:20:16;3.33;;;2.40;;
51036;SDS011;37064;59.346;18.058;2023-02-21T14:22:44;4.90;;;2.30;;
51036;SDS011;37064;59.346;18.058;2023-02-21T14:25:17;3.85;;;2.30;;
51036;SDS011;37064;59.346;18.058;2023-02-21T14:27:44;3.65;;;1.58;;
51036;SDS011;37064;59.346;18.058;2023-02-21T14:32:37;3.92;;;2.28;;
51036;SDS011;37064;59.346;18.058;2023-02-21T14:37:40;4.68;;;2.53;;
51036;SDS011;37064;59.346;18.058;2023-02-21T14:50:35;7.75;;;2.53;;
51036;SDS011;37064;59.346;18.058;2023-02-21T14:55:48;4.43;;;2.83;;
51036;SDS011;37064;59.346;18.058;2023-02-21T15:03:30;5.35;;;2.33;;
51036;SDS011;37064;59.346;18.058;2023-02-21T15:06:10;5.05;;;2.95;;
51036;SDS011;37064;59.346;18.058;2023-02-21T15:08:42;3.85;;;2.25;;
51036;SDS011;37064;59.346;18.058;2023-02-21T15:11:14;5.47;;;3.20;;
51036;SDS011;37064;59.346;18.058;2023-02-21T15:13:42;6.20;;;3.65;;
51036;SDS011;37064;59.346;18.058;2023-02-21T15:16:09;5.72;;;3.17;;
51036;SDS011;37064;59.346;18.058;2023-02-21T15:18:36;3.78;;;2.22;;
51036;SDS011;37064;59.346;18.058;2023-02-21T15:23:35;5.18;;;2.42;;
51036;SDS011;37064;59.346;18.058;2023-02-21T15:26:21;6.00;;;3.88;;
51036;SDS011;37064;59.346;18.058;2023-02-21T15:29:07;3.83;;;2.28;;
51036;SDS011;37064;59.346;18.058;2023-02-21T15:31:54;5.47;;;2.65;;
51036;SDS011;37064;59.346;18.058;2023-02-21T15:34:21;4.20;;;2.40;;
51036;SDS011;37064;59.346;18.058;2023-02-21T15:36:50;4.80;;;3.10;;
51036;SDS011;37064;59.346;18.058;2023-02-21T15:39:23;5.55;;;3.85;;
51036;SDS011;37064;59.346;18.058;2023-02-21T15:41:51;5.88;;;2.75;;
51036;SDS011;37064;59.346;18.058;2023-02-21T15:44:25;2.38;;;1.50;;
51036;SDS011;37064;59.346;18.058;2023-02-21T15:49:26;6.07;;;2.75;;
51036;SDS011;37064;59.346;18.058;2023-02-21T15:51:54;3.95;;;2.45;;
51036;SDS011;37064;59.346;18.058;2023-02-21T15:54:22;7.05;;;2.72;;
51036;SDS011;37064;59.346;18.058;2023-02-21T15:57:34;3.63;;;2.50;;
51036;SDS011;37064;59.346;18.058;2023-02-21T15:59:38;7.13;;;2.67;;
51036;SDS011;37064;59.346;18.058;2023-02-21T16:04:46;5.60;;;3.05;;
51036;SDS011;37064;59.346;18.058;2023-02-21T16:07:29;4.53;;;3.15;;
51036;SDS011;37064;59.346;18.058;2023-02-21T16:10:01;3.88;;;2.35;;
51036;SDS011;37064;59.346;18.058;2023-02-21T16:12:33;3.22;;;2.13;;
51036;SDS011;37064;59.346;18.058;2023-02-21T16:15:01;3.67;;;2.40;;
51036;SDS011;37064;59.346;18.058;2023-02-21T16:17:37;5.35;;;3.13;;
51036;SDS011;37064;59.346;18.058;2023-02-21T16:22:41;3.72;;;2.50;;
51036;SDS011;37064;59.346;18.058;2023-02-21T16:27:36;5.00;;;2.90;;
51036;SDS011;37064;59.346;18.058;2023-02-21T16:30:03;5.70;;;3.20;;
51036;SDS011;37064;59.346;18.058;2023-02-21T16:32:29;8.85;;;2.58;;
51036;SDS011;37064;59.346;18.058;2023-02-21T16:34:56;4.40;;;2.53;;
51036;SDS011;37064;59.346;18.058;2023-02-21T16:37:22;7.20;;;3.67;;
51036;SDS011;37064;59.346;18.058;2023-02-21T16:39:48;3.85;;;2.22;;
51036;SDS011;37064;59.346;18.058;2023-02-21T16:42:14;5.70;;;3.20;;
51036;SDS011;37064;59.346;18.058;2023-02-21T16:44:41;5.85;;;3.00;;
51036;SDS011;37064;59.346;18.058;2023-02-21T16:47:10;5.40;;;3.90;;
51036;SDS011;37064;59.346;18.058;2023-02-21T16:49:38;9.15;;;4.53;;
51036;SDS011;37064;59.346;18.058;2023-02-21T16:52:04;5.55;;;3.10;;
51036;SDS011;37064;59.346;18.058;2023-02-21T16:54:30;9.07;;;3.50;;
51036;SDS011;37064;59.346;18.058;2023-02-21T16:56:56;8.00;;;3.38;;
51036;SDS011;37064;59.346;18.058;2023-02-21T16:59:22;4.72;;;3.60;;
51036;SDS011;37064;59.346;18.058;2023-02-21T17:01:49;7.45;;;3.83;;
51036;SDS011;37064;59.346;18.058;2023-02-21T17:04:16;8.15;;;3.63;;
51036;SDS011;37064;59.346;18.058;2023-02-21T17:06:44;5.78;;;3.35;;
51036;SDS011;37064;59.346;18.058;2023-02-21T17:09:18;5.43;;;3.08;;
51036;SDS011;37064;59.346;18.058;2023-02-21T17:11:45;6.68;;;3.67;;
51036;SDS011;37064;59.346;18.058;2023-02-21T17:14:11;6.45;;;3.40;;
51036;SDS011;37064;59.346;18.058;2023-02-21T17:16:37;9.10;;;3.47;;
51036;SDS011;37064;59.346;18.058;2023-02-21T17:19:03;6.28;;;3.10;;
51036;SDS011;37064;59.346;18.058;2023-02-21T17:21:30;6.43;;;3.30;;
51036;SDS011;37064;59.346;18.058;2023-02-21T17:23:56;6.53;;;3.28;;
51036;SDS011;37064;59.346;18.058;2023-02-21T17:26:23;6.57;;;3.67;;
51036;SDS011;37064;59.346;18.058;2023-02-21T17:28:49;6.15;;;3.38;;
51036;SDS011;37064;59.346;18.058;2023-02-21T17:31:16;5.07;;;2.92;;
51036;SDS011;37064;59.346;18.058;2023-02-21T17:33:43;5.03;;;2.53;;